createdAt,value
2023-05-04T00:00:29.392Z,5.80
2023-05-04T00:02:59.134Z,5.70
2023-05-04T00:05:28.862Z,5.78
2023-05-04T00:07:58.820Z,5.85
2023-05-04T00:10:29.636Z,5.85
2023-05-04T00:12:59.451Z,5.60
2023-05-04T00:15:29.744Z,5.40
2023-05-04T00:17:59.508Z,5.07
2023-05-04T00:20:29.243Z,5.22
2023-05-04T00:22:59.060Z,5.65
2023-05-04T00:25:28.783Z,5.10
2023-05-04T00:27:58.669Z,5.63
2023-05-04T00:30:28.698Z,5.40
2023-05-04T00:32:59.537Z,5.88
2023-05-04T00:35:31.378Z,5.70
2023-05-04T00:38:01.084Z,5.50
2023-05-04T00:40:30.721Z,5.00
2023-05-04T00:43:00.517Z,5.60
2023-05-04T00:45:30.246Z,5.00
2023-05-04T00:48:00.214Z,4.97
2023-05-04T00:50:29.886Z,5.30
2023-05-04T00:53:01.436Z,5.03
2023-05-04T00:55:34.144Z,5.07
2023-05-04T00:58:04.104Z,5.38
2023-05-04T01:00:33.807Z,5.55
2023-05-04T01:03:03.576Z,5.40
2023-05-04T01:05:37.362Z,5.60
2023-05-04T01:08:17.296Z,5.10
2023-05-04T01:11:00.192Z,4.78
2023-05-04T01:13:29.870Z,4.93
2023-05-04T01:15:59.518Z,4.97
2023-05-04T01:18:29.255Z,5.15
2023-05-04T01:20:58.932Z,5.25
2023-05-04T01:23:28.996Z,5.22
2023-05-04T01:26:03.362Z,4.90
2023-05-04T01:28:44.738Z,5.20
2023-05-04T01:31:15.889Z,5.22
2023-05-04T01:33:46.423Z,5.82
2023-05-04T01:36:16.117Z,5.63
2023-05-04T01:38:45.772Z,5.43
2023-05-04T01:41:15.417Z,5.50
2023-05-04T01:43:45.076Z,5.53
2023-05-04T01:46:14.756Z,5.30
2023-05-04T01:48:44.457Z,5.57
2023-05-04T01:51:14.172Z,5.88
2023-05-04T01:53:43.886Z,5.53
2023-05-04T01:56:16.829Z,5.20
2023-05-04T01:58:46.524Z,5.65
2023-05-04T02:01:16.296Z,5.70
2023-05-04T02:03:46.275Z,5.35
2023-05-04T02:06:16.013Z,5.13
2023-05-04T02:08:45.801Z,5.78
2023-05-04T02:11:17.803Z,6.00
2023-05-04T02:13:47.664Z,5.55
2023-05-04T02:16:17.511Z,5.35
2023-05-04T02:18:48.119Z,5.10
2023-05-04T02:21:19.834Z,4.78
2023-05-04T02:23:49.583Z,5.40
2023-05-04T02:26:19.283Z,5.03
2023-05-04T02:28:50.872Z,4.80
2023-05-04T02:31:41.024Z,4.78
2023-05-04T02:34:10.677Z,5.00
2023-05-04T02:36:40.327Z,4.72
2023-05-04T02:39:09.988Z,4.85
2023-05-04T02:41:39.607Z,5.00
2023-05-04T02:44:09.261Z,4.50
2023-05-04T02:46:38.965Z,3.97
2023-05-04T02:49:09.600Z,4.70
2023-05-04T02:51:39.257Z,4.95
2023-05-04T02:54:09.911Z,4.38
2023-05-04T02:56:39.631Z,5.35
2023-05-04T02:59:09.315Z,4.70
2023-05-04T03:01:39.101Z,4.57
2023-05-04T03:04:09.421Z,4.35
2023-05-04T03:06:39.279Z,4.45
2023-05-04T03:09:08.906Z,4.40
2023-05-04T03:11:38.709Z,4.93
2023-05-04T03:14:08.993Z,5.10
2023-05-04T03:16:38.733Z,5.82
2023-05-04T03:19:08.593Z,5.57
2023-05-04T03:21:38.191Z,5.45
2023-05-04T03:24:08.243Z,5.70
2023-05-04T03:26:37.960Z,5.25
2023-05-04T03:29:10.972Z,5.80
2023-05-04T03:31:41.025Z,5.72
2023-05-04T03:34:11.574Z,5.50
2023-05-04T03:36:44.295Z,5.65
2023-05-04T03:39:14.132Z,5.55
2023-05-04T03:41:43.873Z,5.53
2023-05-04T03:44:13.570Z,5.88
2023-05-04T03:46:43.244Z,6.25
2023-05-04T03:49:12.918Z,5.55
2023-05-04T03:51:42.703Z,5.30
2023-05-04T03:54:12.423Z,6.22
2023-05-04T03:56:44.896Z,5.55
2023-05-04T03:59:14.567Z,6.35
2023-05-04T04:01:44.306Z,6.70
2023-05-04T04:04:16.772Z,7.05
2023-05-04T04:06:46.520Z,6.70
2023-05-04T04:09:16.283Z,6.45
2023-05-04T04:11:46.079Z,5.75
2023-05-04T04:14:16.114Z,6.07
2023-05-04T04:16:46.019Z,6.70
2023-05-04T04:19:15.807Z,6.85
2023-05-04T04:21:48.118Z,7.13
2023-05-04T04:24:18.032Z,6.10
2023-05-04T04:26:47.749Z,7.93
2023-05-04T04:29:17.509Z,7.25
2023-05-04T04:31:47.262Z,6.85
2023-05-04T04:34:16.975Z,6.47
2023-05-04T04:36:46.722Z,6.55
2023-05-04T04:39:18.937Z,6.97
2023-05-04T04:41:48.671Z,6.65
2023-05-04T04:44:21.067Z,6.30
2023-05-04T04:46:50.839Z,6.97
2023-05-04T04:49:20.572Z,6.00
2023-05-04T04:51:50.542Z,6.40
2023-05-04T04:54:20.184Z,6.10
2023-05-04T04:56:49.786Z,6.28
2023-05-04T04:59:19.430Z,5.43
2023-05-04T05:01:50.095Z,6.90
2023-05-04T05:04:21.251Z,6.05
2023-05-04T05:06:51.256Z,6.30
2023-05-04T05:09:21.062Z,5.60
2023-05-04T05:11:50.714Z,5.93
2023-05-04T05:14:20.342Z,5.75
2023-05-04T05:16:49.987Z,5.53
2023-05-04T05:19:19.784Z,5.05
2023-05-04T05:21:49.461Z,5.55
2023-05-04T05:24:19.139Z,5.35
2023-05-04T05:26:48.881Z,5.65
2023-05-04T05:29:18.690Z,5.43
2023-05-04T05:31:48.367Z,5.50
2023-05-04T05:34:18.071Z,5.00
2023-05-04T05:36:47.707Z,5.13
2023-05-04T05:39:17.893Z,4.78
2023-05-04T05:41:47.612Z,4.85
2023-05-04T05:44:17.261Z,4.93
2023-05-04T05:46:46.900Z,5.75
2023-05-04T05:49:16.554Z,5.70
2023-05-04T05:51:46.271Z,5.55
2023-05-04T05:54:16.675Z,5.45
2023-05-04T05:56:46.279Z,4.82
2023-05-04T05:59:16.559Z,5.45
2023-05-04T06:01:46.210Z,5.05
2023-05-04T06:04:16.070Z,5.10
2023-05-04T06:06:46.223Z,5.15
2023-05-04T06:09:15.944Z,5.40
2023-05-04T06:11:45.571Z,5.28
2023-05-04T06:14:15.198Z,5.38
2023-05-04T06:16:44.907Z,6.78
2023-05-04T06:19:14.725Z,13.30
2023-05-04T06:21:44.398Z,12.27
2023-05-04T06:24:14.061Z,12.38
2023-05-04T06:26:43.942Z,12.65
2023-05-04T06:29:13.926Z,12.90
2023-05-04T06:31:45.097Z,10.73
2023-05-04T06:34:15.893Z,11.23
2023-05-04T06:36:46.012Z,10.32
2023-05-04T06:39:15.705Z,9.63
2023-05-04T06:41:45.363Z,10.23
2023-05-04T06:44:15.074Z,9.27
2023-05-04T06:46:44.691Z,8.68
2023-05-04T06:49:14.458Z,8.38
2023-05-04T06:51:44.283Z,8.95
2023-05-04T06:54:14.663Z,8.02
2023-05-04T06:56:44.852Z,8.15
2023-05-04T06:59:14.834Z,7.72
2023-05-04T07:01:44.654Z,8.38
2023-05-04T07:04:14.472Z,7.40
2023-05-04T07:06:46.752Z,6.93
2023-05-04T07:09:16.708Z,8.10
2023-05-04T07:11:46.393Z,7.47
2023-05-04T07:14:16.904Z,7.13
2023-05-04T07:16:46.681Z,6.25
2023-05-04T07:19:16.367Z,7.45
2023-05-04T07:21:45.973Z,7.60
2023-05-04T07:24:15.695Z,6.00
2023-05-04T07:26:45.311Z,6.95
2023-05-04T07:29:14.933Z,6.43
2023-05-04T07:31:44.568Z,6.07
2023-05-04T07:34:14.272Z,6.63
2023-05-04T07:36:43.946Z,6.20
2023-05-04T07:39:14.120Z,5.85
2023-05-04T07:41:43.853Z,5.90
2023-05-04T07:44:14.004Z,6.10
2023-05-04T07:46:43.637Z,6.00
2023-05-04T07:49:13.355Z,5.85
2023-05-04T07:51:43.199Z,6.10
2023-05-04T07:54:12.864Z,6.13
2023-05-04T07:56:42.822Z,5.82
2023-05-04T07:59:12.470Z,5.78
2023-05-04T08:01:43.774Z,5.55
2023-05-04T08:04:13.935Z,6.18
2023-05-04T08:06:43.708Z,5.63
2023-05-04T08:09:13.985Z,5.75
2023-05-04T08:11:43.809Z,5.95
2023-05-04T08:14:16.473Z,5.60
2023-05-04T08:16:46.175Z,6.10
2023-05-04T08:19:15.819Z,5.60
2023-05-04T08:21:45.530Z,6.28
2023-05-04T08:24:15.255Z,5.70
2023-05-04T08:26:49.588Z,6.20
2023-05-04T08:29:25.467Z,5.60
2023-05-04T08:31:57.114Z,6.00
2023-05-04T08:34:27.237Z,6.13
2023-05-04T08:36:56.947Z,6.00
2023-05-04T08:39:26.682Z,5.70
2023-05-04T08:41:56.289Z,6.40
2023-05-04T08:44:26.032Z,5.57
2023-05-04T08:46:55.684Z,6.30
2023-05-04T08:49:25.996Z,5.88
2023-05-04T08:51:55.632Z,5.60
2023-05-04T08:54:25.742Z,5.50
2023-05-04T08:56:56.630Z,5.90
2023-05-04T08:59:26.282Z,6.20
2023-05-04T09:01:58.609Z,5.57
2023-05-04T09:04:29.667Z,5.40
2023-05-04T09:07:00.080Z,5.80
2023-05-04T09:09:30.638Z,5.43
2023-05-04T09:12:00.505Z,5.68
2023-05-04T09:14:39.009Z,5.72
2023-05-04T09:17:16.290Z,6.05
2023-05-04T09:19:46.531Z,6.35
2023-05-04T09:22:20.905Z,5.95
2023-05-04T09:24:50.646Z,5.65
2023-05-04T09:27:20.243Z,5.53
2023-05-04T09:29:56.564Z,5.53
2023-05-04T09:32:26.337Z,5.15
2023-05-04T09:34:56.290Z,4.72
2023-05-04T09:37:25.939Z,5.38
2023-05-04T09:40:00.396Z,5.22
2023-05-04T09:42:30.283Z,5.25
2023-05-04T09:45:03.551Z,5.63
2023-05-04T09:47:40.857Z,5.35
2023-05-04T09:50:21.332Z,5.53
2023-05-04T09:52:51.559Z,4.88
2023-05-04T09:55:21.977Z,5.20
2023-05-04T09:57:52.488Z,4.93
2023-05-04T10:00:22.607Z,4.78
2023-05-04T10:02:52.240Z,4.95
2023-05-04T10:05:23.216Z,5.25
2023-05-04T10:07:53.580Z,5.07
2023-05-04T10:10:23.498Z,4.93
2023-05-04T10:12:53.210Z,4.78
2023-05-04T10:15:22.967Z,5.00
2023-05-04T10:18:17.231Z,4.80
2023-05-04T10:21:05.049Z,4.65
2023-05-04T10:23:46.495Z,4.85
2023-05-04T10:26:31.448Z,4.70
2023-05-04T10:29:23.624Z,5.05
2023-05-04T10:31:54.858Z,4.75
2023-05-04T10:34:42.450Z,4.55
2023-05-04T10:37:18.949Z,4.85
2023-05-04T10:39:58.127Z,4.80
2023-05-04T10:42:27.753Z,4.60
2023-05-04T10:44:58.169Z,4.53
2023-05-04T10:47:34.503Z,4.68
2023-05-04T10:50:16.052Z,4.97
2023-05-04T10:52:49.434Z,4.82
2023-05-04T10:55:19.980Z,4.93
2023-05-04T10:57:56.932Z,4.75
2023-05-04T11:00:37.393Z,4.80
2023-05-04T11:03:08.946Z,4.82
2023-05-04T11:05:56.016Z,5.20
2023-05-04T11:08:26.840Z,4.97
2023-05-04T11:11:08.394Z,4.93
2023-05-04T11:13:41.239Z,5.13
2023-05-04T11:16:11.028Z,4.50
2023-05-04T11:18:40.814Z,5.05
2023-05-04T11:21:11.258Z,4.53
2023-05-04T11:23:40.962Z,4.78
2023-05-04T11:26:10.847Z,5.15
2023-05-04T11:28:41.119Z,5.10
2023-05-04T11:31:18.472Z,5.28
2023-05-04T11:33:49.677Z,5.43
2023-05-04T11:36:19.679Z,5.38
2023-05-04T11:38:49.480Z,5.57
2023-05-04T11:41:19.171Z,5.30
2023-05-04T11:43:48.829Z,5.50
2023-05-04T11:46:18.564Z,5.55
2023-05-04T11:48:48.729Z,5.32
2023-05-04T11:51:18.634Z,5.82
2023-05-04T11:53:48.520Z,5.50
2023-05-04T11:56:18.107Z,5.65
2023-05-04T11:58:47.775Z,5.80
2023-05-04T12:01:17.440Z,5.40
2023-05-04T12:03:53.978Z,6.32
2023-05-04T12:06:34.712Z,5.78
2023-05-04T12:09:06.360Z,5.35
2023-05-04T12:11:37.211Z,5.93
2023-05-04T12:14:16.984Z,5.95
2023-05-04T12:16:59.319Z,6.25
2023-05-04T12:19:28.908Z,5.88
2023-05-04T12:22:00.383Z,6.32
2023-05-04T12:24:30.029Z,6.10
2023-05-04T12:26:59.645Z,5.85
2023-05-04T12:29:29.291Z,6.15
2023-05-04T12:31:59.063Z,6.50
2023-05-04T12:34:28.712Z,6.15
2023-05-04T12:36:58.352Z,6.38
2023-05-04T12:39:30.274Z,6.07
2023-05-04T12:42:00.347Z,6.20
2023-05-04T12:44:30.252Z,5.90
2023-05-04T12:46:59.854Z,6.07
2023-05-04T12:49:29.499Z,6.05
2023-05-04T12:51:59.742Z,5.95
2023-05-04T12:54:29.401Z,5.90
2023-05-04T12:57:02.168Z,5.93
2023-05-04T12:59:31.864Z,5.70
2023-05-04T13:02:01.551Z,5.53
2023-05-04T13:04:31.277Z,5.80
2023-05-04T13:07:00.956Z,5.18
2023-05-04T13:09:30.634Z,5.82
2023-05-04T13:12:00.319Z,6.15
2023-05-04T13:14:30.303Z,5.30
2023-05-04T13:17:00.555Z,5.95
2023-05-04T13:19:30.481Z,5.40
2023-05-04T13:22:00.121Z,5.50
2023-05-04T13:24:31.204Z,5.35
2023-05-04T13:27:00.960Z,6.05
2023-05-04T13:29:30.632Z,5.43
2023-05-04T13:32:01.072Z,5.80
2023-05-04T13:34:30.813Z,5.35
2023-05-04T13:37:00.489Z,5.65
2023-05-04T13:39:30.137Z,5.15
2023-05-04T13:41:59.758Z,5.47
2023-05-04T13:44:29.379Z,6.18
2023-05-04T13:46:59.046Z,5.18
2023-05-04T13:49:28.793Z,5.38
2023-05-04T13:52:01.563Z,5.47
2023-05-04T13:54:31.232Z,5.18
2023-05-04T13:57:02.069Z,5.68
2023-05-04T13:59:32.453Z,5.25
2023-05-04T14:02:02.903Z,5.43
2023-05-04T14:04:33.237Z,5.13
2023-05-04T14:07:02.897Z,5.28
2023-05-04T14:09:32.562Z,5.55
2023-05-04T14:12:02.178Z,5.88
2023-05-04T14:14:31.871Z,5.55
2023-05-04T14:17:01.487Z,5.88
2023-05-04T14:19:31.101Z,5.10
2023-05-04T14:22:00.861Z,5.30
2023-05-04T14:24:31.193Z,5.35
2023-05-04T14:27:00.798Z,5.53
2023-05-04T14:29:30.422Z,5.50
2023-05-04T14:32:00.299Z,5.32
2023-05-04T14:34:29.995Z,5.18
2023-05-04T14:36:59.687Z,5.22
2023-05-04T14:39:29.441Z,5.53
2023-05-04T14:41:59.643Z,5.13
2023-05-04T14:44:31.433Z,5.00
2023-05-04T14:47:01.177Z,5.60
2023-05-04T14:52:05.353Z,5.35
2023-05-04T14:54:34.970Z,5.15
2023-05-04T14:57:04.886Z,5.38
2023-05-04T14:59:34.462Z,5.40
2023-05-04T15:02:06.970Z,5.03
2023-05-04T15:04:36.686Z,4.85
2023-05-04T15:07:07.055Z,5.00
2023-05-04T15:09:37.171Z,4.95
2023-05-04T15:12:07.149Z,4.88
2023-05-04T15:14:38.415Z,5.38
2023-05-04T15:17:08.788Z,4.68
2023-05-04T15:19:41.634Z,5.38
2023-05-04T15:22:11.261Z,4.70
2023-05-04T15:24:40.933Z,5.13
2023-05-04T15:27:10.631Z,4.82
2023-05-04T15:29:40.268Z,4.57
2023-05-04T15:32:09.962Z,4.40
2023-05-04T15:34:39.577Z,4.93
2023-05-04T15:37:09.217Z,4.53
2023-05-04T15:39:38.985Z,5.10
2023-05-04T15:42:08.673Z,5.35
2023-05-04T15:44:38.389Z,4.72
2023-05-04T15:49:44.794Z,4.32
2023-05-04T15:52:14.396Z,4.93
2023-05-04T15:54:44.090Z,4.88
2023-05-04T15:57:13.760Z,4.80
2023-05-04T15:59:43.506Z,5.10
2023-05-04T16:02:13.302Z,4.70
2023-05-04T16:04:44.038Z,4.72
2023-05-04T16:07:13.746Z,4.78
2023-05-04T16:09:43.462Z,4.80
2023-05-04T16:12:13.156Z,4.95
2023-05-04T16:14:43.028Z,5.00
2023-05-04T16:17:12.786Z,4.55
2023-05-04T16:19:42.804Z,4.65
2023-05-04T16:22:12.487Z,4.88
2023-05-04T16:24:42.140Z,4.45
2023-05-04T16:27:11.741Z,4.20
2023-05-04T16:29:42.088Z,4.80
2023-05-04T16:34:41.080Z,4.70
2023-05-04T16:37:11.066Z,4.60
2023-05-04T16:39:41.047Z,4.80
2023-05-04T16:42:10.887Z,4.88
2023-05-04T16:44:40.510Z,4.53
2023-05-04T16:47:10.131Z,4.10
2023-05-04T16:49:39.786Z,4.63
2023-05-04T16:52:09.446Z,4.80
2023-05-04T16:54:39.090Z,4.70
2023-05-04T16:57:09.024Z,4.75
2023-05-04T16:59:38.661Z,4.78
2023-05-04T17:02:10.038Z,4.30
2023-05-04T17:04:40.108Z,4.43
2023-05-04T17:07:10.888Z,4.22
2023-05-04T17:09:40.854Z,4.60
2023-05-04T17:12:10.510Z,4.22
2023-05-04T17:14:40.124Z,4.13
2023-05-04T17:17:09.832Z,4.07
2023-05-04T17:19:41.976Z,4.28
2023-05-04T17:22:12.730Z,3.90
2023-05-04T17:24:45.295Z,4.30
2023-05-04T17:27:15.397Z,4.15
2023-05-04T17:29:45.618Z,4.13
2023-05-04T17:32:15.330Z,4.30
2023-05-04T17:34:45.093Z,4.00
2023-05-04T17:37:14.694Z,4.45
2023-05-04T17:39:44.327Z,4.00
2023-05-04T17:42:14.994Z,3.85
2023-05-04T17:44:44.665Z,4.05
2023-05-04T17:47:14.298Z,4.00
2023-05-04T17:49:43.919Z,4.22
2023-05-04T17:52:16.971Z,3.92
2023-05-04T17:54:46.555Z,3.83
2023-05-04T17:57:18.088Z,3.85
2023-05-04T17:59:48.674Z,3.90
2023-05-04T18:02:18.330Z,4.18
2023-05-04T18:04:47.914Z,3.90
2023-05-04T18:07:17.571Z,3.90
2023-05-04T18:09:47.272Z,3.60
2023-05-04T18:12:17.181Z,3.90
2023-05-04T18:14:46.769Z,3.53
2023-05-04T18:17:16.492Z,4.18
2023-05-04T18:19:46.495Z,3.92
2023-05-04T18:22:16.101Z,3.78
2023-05-04T18:24:49.340Z,3.83
2023-05-04T18:27:18.996Z,3.70
2023-05-04T18:29:50.029Z,3.60
2023-05-04T18:32:19.712Z,3.58
2023-05-04T18:34:53.131Z,3.70
2023-05-04T18:37:26.524Z,3.42
2023-05-04T18:39:56.219Z,3.80
2023-05-04T18:42:26.035Z,3.75
2023-05-04T18:44:56.299Z,3.50
2023-05-04T18:47:25.953Z,3.80
2023-05-04T18:49:57.709Z,3.42
2023-05-04T18:52:27.422Z,3.17
2023-05-04T18:54:57.459Z,3.30
2023-05-04T18:57:29.427Z,3.60
2023-05-04T18:59:59.717Z,3.33
2023-05-04T19:02:31.375Z,3.58
2023-05-04T19:05:01.048Z,3.42
2023-05-04T19:07:33.393Z,3.50
2023-05-04T19:10:03.217Z,3.47
2023-05-04T19:12:33.063Z,3.28
2023-05-04T19:15:02.801Z,3.30
2023-05-04T19:17:32.461Z,3.30
2023-05-04T19:20:02.726Z,3.38
2023-05-04T19:22:32.977Z,2.83
2023-05-04T19:25:02.632Z,3.15
2023-05-04T19:27:32.320Z,3.15
2023-05-04T19:30:02.010Z,3.20
2023-05-04T19:32:34.237Z,3.10
2023-05-04T19:35:04.088Z,3.38
2023-05-04T19:37:34.219Z,3.30
2023-05-04T19:40:03.890Z,3.10
2023-05-04T19:42:33.643Z,3.53
2023-05-04T19:45:03.258Z,3.00
2023-05-04T19:47:33.895Z,3.35
2023-05-04T19:50:03.571Z,3.45
2023-05-04T19:52:33.146Z,3.53
2023-05-04T19:55:02.780Z,3.40
2023-05-04T19:57:32.453Z,3.13
2023-05-04T20:00:02.422Z,3.10
2023-05-04T20:02:32.720Z,3.33
2023-05-04T20:05:02.437Z,3.20
2023-05-04T20:07:32.073Z,3.22
2023-05-04T20:10:01.885Z,3.30
2023-05-04T20:12:31.576Z,3.42
2023-05-04T20:15:01.245Z,3.15
2023-05-04T20:17:31.000Z,2.88
2023-05-04T20:20:00.777Z,2.90
2023-05-04T20:22:30.484Z,2.88
2023-05-04T20:25:00.437Z,2.90
2023-05-04T20:27:30.057Z,2.83
2023-05-04T20:30:00.408Z,2.65
2023-05-04T20:32:30.420Z,2.88
2023-05-04T20:35:00.034Z,2.65
2023-05-04T20:37:29.799Z,2.60
2023-05-04T20:39:59.407Z,3.22
2023-05-04T20:42:29.054Z,2.60
2023-05-04T20:44:58.671Z,2.50
2023-05-04T20:47:28.352Z,2.72
2023-05-04T20:49:58.180Z,2.50
2023-05-04T20:52:27.809Z,2.47
2023-05-04T20:54:57.565Z,2.28
2023-05-04T20:57:27.406Z,2.42
2023-05-04T20:59:57.952Z,2.42
2023-05-04T21:02:27.697Z,2.85
2023-05-04T21:04:57.357Z,2.60
2023-05-04T21:07:27.213Z,2.58
2023-05-04T21:10:00.260Z,2.30
2023-05-04T21:12:29.997Z,2.42
2023-05-04T21:14:59.629Z,2.42
2023-05-04T21:17:29.373Z,2.20
2023-05-04T21:19:59.026Z,2.25
2023-05-04T21:22:29.584Z,2.00
2023-05-04T21:24:59.191Z,2.13
2023-05-04T21:27:28.808Z,2.17
2023-05-04T21:29:58.541Z,2.15
2023-05-04T21:32:28.988Z,2.10
2023-05-04T21:34:58.648Z,1.90
2023-05-04T21:37:28.463Z,2.17
2023-05-04T21:39:58.218Z,2.17
2023-05-04T21:42:27.867Z,2.03
2023-05-04T21:45:00.304Z,2.10
2023-05-04T21:47:29.998Z,2.08
2023-05-04T21:49:59.593Z,2.05
2023-05-04T21:52:29.223Z,2.10
2023-05-04T21:54:58.943Z,1.95
2023-05-04T21:57:29.134Z,2.20
2023-05-04T21:59:58.776Z,2.17
2023-05-04T22:02:28.391Z,2.05
2023-05-04T22:04:58.061Z,2.13
2023-05-04T22:07:28.236Z,1.90
2023-05-04T22:09:57.835Z,2.00
2023-05-04T22:12:27.593Z,2.00
2023-05-04T22:14:57.297Z,2.05
2023-05-04T22:17:27.076Z,1.80
2023-05-04T22:19:56.759Z,2.08
2023-05-04T22:22:26.511Z,2.00
2023-05-04T22:24:56.276Z,1.98
2023-05-04T22:27:25.979Z,1.80
2023-05-04T22:29:55.628Z,1.77
2023-05-04T22:32:25.316Z,1.92
2023-05-04T22:34:54.998Z,2.00
2023-05-04T22:37:24.677Z,1.90
2023-05-04T22:39:54.594Z,1.80
2023-05-04T22:42:24.819Z,2.13
2023-05-04T22:44:54.473Z,2.00
2023-05-04T22:47:24.199Z,1.80
2023-05-04T22:49:57.728Z,1.77
2023-05-04T22:52:27.390Z,1.90
2023-05-04T22:54:57.063Z,1.98
2023-05-04T22:57:27.178Z,1.80
2023-05-04T22:59:56.829Z,1.70
2023-05-04T23:02:26.617Z,1.55
2023-05-04T23:04:56.410Z,1.80
2023-05-04T23:07:26.105Z,1.80
2023-05-04T23:09:55.796Z,1.70
2023-05-04T23:12:26.954Z,1.80
2023-05-04T23:14:56.580Z,1.58
2023-05-04T23:17:26.341Z,1.60
2023-05-04T23:19:56.031Z,1.90
2023-05-04T23:22:26.314Z,1.70
2023-05-04T23:24:56.187Z,1.60
2023-05-04T23:27:25.854Z,1.67
2023-05-04T23:29:55.696Z,1.50
2023-05-04T23:32:25.344Z,1.85
2023-05-04T23:34:55.403Z,1.35
2023-05-04T23:37:25.079Z,1.70
2023-05-04T23:39:54.687Z,1.63
2023-05-04T23:42:24.336Z,1.70
2023-05-04T23:44:57.228Z,1.33
2023-05-04T23:47:26.957Z,1.33
2023-05-04T23:49:56.667Z,1.63
2023-05-04T23:52:26.357Z,1.70
2023-05-04T23:54:56.436Z,1.80
2023-05-04T23:57:26.134Z,1.60
2023-05-04T23:59:55.777Z,1.50
